Time;durP1;ratioP1;P1;durP2;ratioP2;P2;SDS_P1;SDS_P2;PMS_P1;PMS_P2;Temp;Humidity;BMP_temperature;BMP_pressure;BME280_temperature;BME280_humidity;BME280_pressure;Samples;Min_cycle;Max_cycle;Signal;HPM_P1;HPM_P2
2022/12/04 00:00:10;;;;;;;25.58;15.23;;;;;;;;;;4970839;28;20074;-76
2022/12/04 00:02:35;;;;;;;32.77;14.63;;;;;;;;;;4973282;28;20035;-76
2022/12/04 00:05:02;;;;;;;23.17;13.35;;;;;;;;;;4973658;28;20035;-76
2022/12/04 00:07:28;;;;;;;25.90;14.50;;;;;;;;;;4972497;28;20031;-76
2022/12/04 00:09:53;;;;;;;28.63;14.85;;;;;;;;;;4970651;28;20483;-76
2022/12/04 00:12:19;;;;;;;30.27;14.98;;;;;;;;;;4977063;28;20087;-77
2022/12/04 00:14:45;;;;;;;31.40;16.20;;;;;;;;;;4970147;28;20109;-79
2022/12/04 00:17:11;;;;;;;21.65;13.43;;;;;;;;;;4971358;28;20123;-75
2022/12/04 00:19:36;;;;;;;21.90;12.38;;;;;;;;;;4970898;28;20062;-77
2022/12/04 00:22:02;;;;;;;27.50;15.20;;;;;;;;;;4969490;28;20407;-75
2022/12/04 00:24:28;;;;;;;25.83;14.30;;;;;;;;;;4970793;28;20042;-76
2022/12/04 00:26:53;;;;;;;21.75;13.57;;;;;;;;;;4970802;28;20124;-76
2022/12/04 00:29:19;;;;;;;22.05;13.43;;;;;;;;;;4970773;28;20046;-75
2022/12/04 00:31:44;;;;;;;21.27;12.48;;;;;;;;;;4968819;28;20035;-76
2022/12/04 00:34:10;;;;;;;23.92;13.85;;;;;;;;;;4972497;28;20398;-77
2022/12/04 00:36:36;;;;;;;20.80;12.63;;;;;;;;;;4971669;28;20038;-75
2022/12/04 00:39:02;;;;;;;26.33;13.57;;;;;;;;;;4970447;28;20069;-76
2022/12/04 00:41:30;;;;;;;22.05;12.98;;;;;;;;;;4973590;28;20054;-78
2022/12/04 00:43:56;;;;;;;22.00;13.15;;;;;;;;;;4972702;28;20180;-75
2022/12/04 00:46:22;;;;;;;22.50;13.00;;;;;;;;;;4971081;28;20031;-78
2022/12/04 00:48:48;;;;;;;23.70;14.38;;;;;;;;;;4971733;28;20054;-78
2022/12/04 00:51:23;;;;;;;17.92;12.82;;;;;;;;;;4970630;28;20031;-78
2022/12/04 00:53:50;;;;;;;23.75;14.00;;;;;;;;;;4970067;28;20121;-76
2022/12/04 00:56:20;;;;;;;22.17;12.65;;;;;;;;;;4970754;28;20037;-77
2022/12/04 00:58:46;;;;;;;;;;;;;;;;;;4969009;28;20027;-77
2022/12/04 01:01:14;;;;;;;21.20;13.43;;;;;;;;;;4972203;28;19918;-77
2022/12/04 01:03:40;;;;;;;25.88;15.52;;;;;;;;;;4972133;28;20490;-77
2022/12/04 01:06:07;;;;;;;20.75;13.15;;;;;;;;;;4971617;28;20031;-78
2022/12/04 01:08:33;;;;;;;22.23;14.00;;;;;;;;;;4970258;28;20041;-79
2022/12/04 01:10:59;;;;;;;19.58;12.88;;;;;;;;;;4971141;28;20034;-76
2022/12/04 01:13:25;;;;;;;21.75;12.57;;;;;;;;;;4972557;28;20026;-76
2022/12/04 01:15:51;;;;;;;20.85;13.13;;;;;;;;;;4970331;28;20406;-76
2022/12/04 01:18:16;;;;;;;22.00;13.75;;;;;;;;;;4968125;28;20035;-76
2022/12/04 01:20:50;;;;;;;21.63;12.45;;;;;;;;;;4971417;28;20034;-78
2022/12/04 01:23:17;;;;;;;19.88;13.32;;;;;;;;;;4971471;28;20035;-78
2022/12/04 01:25:54;;;;;;;21.40;12.80;;;;;;;;;;4975357;28;20115;-76
2022/12/04 01:28:20;;;;;;;23.98;14.00;;;;;;;;;;4971428;28;20054;-78
2022/12/04 01:31:03;;;;;;;23.15;12.93;;;;;;;;;;4972245;28;20038;-79
2022/12/04 01:33:31;;;;;;;20.75;14.10;;;;;;;;;;4967806;28;20096;-76
2022/12/04 01:35:58;;;;;;;22.13;13.52;;;;;;;;;;4969629;28;20086;-77
2022/12/04 01:38:25;;;;;;;22.60;14.00;;;;;;;;;;4971075;28;20030;-80
2022/12/04 01:40:51;;;;;;;23.73;13.13;;;;;;;;;;4976715;28;20280;-80
2022/12/04 01:43:17;;;;;;;15.95;12.43;;;;;;;;;;4970833;28;20038;-76
2022/12/04 01:45:49;;;;;;;25.27;14.38;;;;;;;;;;4969889;28;20030;-77
2022/12/04 01:48:20;;;;;;;22.48;14.60;;;;;;;;;;4970737;28;20047;-75
2022/12/04 01:50:50;;;;;;;18.90;13.30;;;;;;;;;;4972147;28;20498;-75
2022/12/04 01:53:17;;;;;;;20.50;11.13;;;;;;;;;;4969772;28;20046;-76
2022/12/04 01:55:45;;;;;;;20.10;12.25;;;;;;;;;;4971110;28;20066;-75
2022/12/04 01:58:11;;;;;;;19.83;12.95;;;;;;;;;;4970630;28;20046;-76
2022/12/04 02:00:37;;;;;;;24.27;14.43;;;;;;;;;;4971017;28;20438;-76
2022/12/04 02:03:02;;;;;;;25.65;14.55;;;;;;;;;;4984232;28;20062;-77
2022/12/04 02:05:28;;;;;;;21.88;13.70;;;;;;;;;;4971588;28;20037;-76
2022/12/04 02:07:58;;;;;;;27.23;14.15;;;;;;;;;;4971267;28;20019;-79
2022/12/04 02:10:50;;;;;;;25.67;13.50;;;;;;;;;;4970718;28;20045;-76
2022/12/04 02:13:19;;;;;;;12.60;9.70;;;;;;;;;;4972097;28;20094;-76
2022/12/04 02:15:56;;;;;;;24.38;13.35;;;;;;;;;;4972176;28;20066;-76
2022/12/04 02:18:34;;;;;;;20.13;11.95;;;;;;;;;;4971942;28;20254;-77
2022/12/04 02:21:08;;;;;;;18.95;11.70;;;;;;;;;;4969721;28;20038;-76
2022/12/04 02:24:04;;;;;;;23.10;13.27;;;;;;;;;;4970703;28;20070;-75
2022/12/04 02:26:48;;;;;;;16.50;11.35;;;;;;;;;;4966266;28;20093;-75
2022/12/04 02:29:38;;;;;;;22.08;12.45;;;;;;;;;;4973050;28;20062;-79
2022/12/04 02:32:18;;;;;;;19.08;11.00;;;;;;;;;;4970811;28;20037;-76
2022/12/04 02:34:55;;;;;;;25.85;13.77;;;;;;;;;;4970168;28;20510;-75
2022/12/04 02:37:30;;;;;;;17.65;11.88;;;;;;;;;;4970532;28;20054;-75
2022/12/04 02:40:02;;;;;;;21.85;12.23;;;;;;;;;;4968005;28;20039;-76
2022/12/04 02:43:02;;;;;;;19.42;11.98;;;;;;;;;;4969866;28;20051;-77
2022/12/04 02:45:40;;;;;;;17.08;10.18;;;;;;;;;;4974383;28;20507;-75
2022/12/04 02:48:07;;;;;;;18.63;11.32;;;;;;;;;;4967270;28;20056;-76
2022/12/04 02:50:39;;;;;;;21.08;11.90;;;;;;;;;;4985071;28;20031;-75
2022/12/04 02:53:12;;;;;;;22.10;11.38;;;;;;;;;;4969011;28;20043;-77
2022/12/04 02:55:42;;;;;;;20.35;11.95;;;;;;;;;;4970016;28;20115;-76
2022/12/04 02:58:23;;;;;;;20.38;12.65;;;;;;;;;;4968696;28;20438;-76
2022/12/04 03:00:51;;;;;;;18.67;11.02;;;;;;;;;;4972853;28;20089;-77
2022/12/04 03:03:22;;;;;;;16.98;11.02;;;;;;;;;;4969405;28;20569;-77
2022/12/04 03:06:09;;;;;;;20.60;11.50;;;;;;;;;;4968084;28;20034;-76
2022/12/04 03:08:40;;;;;;;27.35;13.73;;;;;;;;;;4972399;28;20066;-77
2022/12/04 03:11:05;;;;;;;20.30;12.20;;;;;;;;;;4971270;28;20047;-77
2022/12/04 03:13:38;;;;;;;15.85;11.25;;;;;;;;;;4974145;28;20391;-78
2022/12/04 03:16:16;;;;;;;21.38;11.75;;;;;;;;;;4971007;28;20102;-80
2022/12/04 03:19:10;;;;;;;21.92;11.80;;;;;;;;;;4969659;28;20037;-76
2022/12/04 03:21:39;;;;;;;18.00;11.40;;;;;;;;;;4969904;28;20042;-79
2022/12/04 03:24:12;;;;;;;;;;;;;;;;;;4973286;28;20098;-75
2022/12/04 03:26:43;;;;;;;20.70;12.18;;;;;;;;;;4966816;28;20005;-76
2022/12/04 03:29:16;;;;;;;25.50;12.85;;;;;;;;;;4970555;28;20066;-75
2022/12/04 03:32:02;;;;;;;19.17;10.35;;;;;;;;;;4969715;28;20035;-77
2022/12/04 03:34:37;;;;;;;22.50;11.38;;;;;;;;;;4963418;28;20042;-76
2022/12/04 03:37:12;;;;;;;18.90;11.75;;;;;;;;;;4968005;28;20174;-78
2022/12/04 03:39:49;;;;;;;18.00;12.18;;;;;;;;;;4974752;28;20050;-77
2022/12/04 03:42:20;;;;;;;21.35;11.55;;;;;;;;;;4975467;28;20038;-77
2022/12/04 03:45:12;;;;;;;21.95;12.13;;;;;;;;;;4974910;28;20104;-76
2022/12/04 03:47:47;;;;;;;21.75;11.98;;;;;;;;;;4975463;28;20034;-76
2022/12/04 03:50:26;;;;;;;18.38;10.52;;;;;;;;;;4972820;28;20050;-75
2022/12/04 03:53:01;;;;;;;16.65;11.05;;;;;;;;;;4972227;28;20446;-76
2022/12/04 03:55:33;;;;;;;8.40;5.47;;;;;;;;;;4976225;28;20042;-75
2022/12/04 03:58:03;;;;;;;22.67;12.68;;;;;;;;;;4975921;28;20166;-79
2022/12/04 04:00:31;;;;;;;24.80;13.00;;;;;;;;;;4976038;28;20167;-76
2022/12/04 04:03:08;;;;;;;24.35;13.13;;;;;;;;;;4977887;28;20058;-78
2022/12/04 04:05:39;;;;;;;21.20;12.82;;;;;;;;;;4975394;28;20041;-78
2022/12/04 04:08:26;;;;;;;20.65;11.90;;;;;;;;;;4977300;28;20083;-75
2022/12/04 04:10:55;;;;;;;21.27;11.70;;;;;;;;;;4975757;28;20306;-75
2022/12/04 04:24:43;;;;;;;22.30;11.13;;;;;;;;;;4970734;28;20494;-80
2022/12/04 04:27:08;;;;;;;21.55;12.23;;;;;;;;;;4975053;28;20046;-78
2022/12/04 04:29:35;;;;;;;16.55;10.57;;;;;;;;;;4975820;28;20041;-78
2022/12/04 04:32:34;;;;;;;17.25;10.38;;;;;;;;;;4973544;28;20049;-76
2022/12/04 04:35:05;;;;;;;17.58;10.30;;;;;;;;;;4972187;28;20029;-78
2022/12/04 04:37:44;;;;;;;17.75;11.25;;;;;;;;;;4973524;28;20035;-77
2022/12/04 04:40:22;;;;;;;19.63;11.35;;;;;;;;;;4977899;28;21379;-78
2022/12/04 04:42:57;;;;;;;19.33;10.27;;;;;;;;;;4978232;28;20041;-77
2022/12/04 04:45:30;;;;;;;16.88;11.13;;;;;;;;;;4989128;28;20043;-78
2022/12/04 04:48:01;;;;;;;21.83;11.63;;;;;;;;;;4974165;28;20035;-78
2022/12/04 04:50:28;;;;;;;17.77;9.95;;;;;;;;;;4971292;28;20046;-78
2022/12/04 04:52:59;;;;;;;19.85;11.23;;;;;;;;;;4978149;28;20085;-77
2022/12/04 04:55:25;;;;;;;18.35;11.00;;;;;;;;;;4975955;28;20085;-77
2022/12/04 04:57:50;;;;;;;17.25;11.13;;;;;;;;;;4975541;28;20483;-77
2022/12/04 05:00:20;;;;;;;19.90;11.55;;;;;;;;;;4973957;28;20046;-77
2022/12/04 05:02:48;;;;;;;19.05;11.75;;;;;;;;;;4974598;28;20031;-77
2022/12/04 05:05:13;;;;;;;16.88;11.48;;;;;;;;;;4971661;28;20093;-78
2022/12/04 05:07:40;;;;;;;14.77;9.75;;;;;;;;;;4973900;28;20106;-77
2022/12/04 05:10:06;;;;;;;14.02;9.15;;;;;;;;;;4972750;28;20046;-77
2022/12/04 05:12:32;;;;;;;21.70;10.68;;;;;;;;;;4972447;28;20040;-75
2022/12/04 05:14:58;;;;;;;20.00;11.00;;;;;;;;;;4974432;28;20064;-75
2022/12/04 05:17:23;;;;;;;17.83;11.45;;;;;;;;;;4974785;28;20102;-77
2022/12/04 05:19:52;;;;;;;16.92;10.93;;;;;;;;;;4977408;28;20042;-79
2022/12/04 05:22:31;;;;;;;20.87;11.53;;;;;;;;;;4988849;28;20038;-75
2022/12/04 05:24:57;;;;;;;17.00;10.82;;;;;;;;;;4975000;28;20289;-78
2022/12/04 05:27:24;;;;;;;22.23;11.27;;;;;;;;;;4972830;28;20077;-78
2022/12/04 05:29:54;;;;;;;19.30;10.90;;;;;;;;;;4975687;28;20058;-77
2022/12/04 05:32:21;;;;;;;14.18;10.15;;;;;;;;;;4973074;28;20047;-77
2022/12/04 05:34:47;;;;;;;17.13;11.55;;;;;;;;;;4960125;28;20039;-77
2022/12/04 05:37:13;;;;;;;18.42;9.85;;;;;;;;;;4973313;28;20043;-75
2022/12/04 05:39:39;;;;;;;17.45;9.70;;;;;;;;;;4972284;28;20593;-76
2022/12/04 05:42:04;;;;;;;9.88;8.20;;;;;;;;;;4972193;28;20058;-77
2022/12/04 05:44:30;;;;;;;17.02;10.80;;;;;;;;;;4974898;28;20035;-76
2022/12/04 05:46:55;;;;;;;14.57;10.57;;;;;;;;;;4976429;28;20395;-78
2022/12/04 05:49:22;;;;;;;15.73;10.00;;;;;;;;;;4976322;28;20483;-76
2022/12/04 05:51:49;;;;;;;15.95;10.18;;;;;;;;;;4978798;28;20042;-78
2022/12/04 05:54:15;;;;;;;19.90;11.90;;;;;;;;;;4982610;28;20043;-77
2022/12/04 05:56:40;;;;;;;16.70;9.95;;;;;;;;;;4975467;28;20034;-79
2022/12/04 05:59:06;;;;;;;17.98;9.75;;;;;;;;;;4974332;28;20035;-78
2022/12/04 06:01:31;;;;;;;16.20;9.93;;;;;;;;;;4991999;28;20073;-78
2022/12/04 06:03:57;;;;;;;15.38;9.40;;;;;;;;;;4975412;28;20042;-78
2022/12/04 06:06:24;;;;;;;15.43;9.93;;;;;;;;;;4975296;28;20033;-78
2022/12/04 06:08:52;;;;;;;17.45;12.45;;;;;;;;;;4973769;28;20049;-76
2022/12/04 06:11:27;;;;;;;17.17;10.68;;;;;;;;;;4974293;28;20175;-76
2022/12/04 06:13:53;;;;;;;52.20;24.48;;;;;;;;;;4973195;28;20053;-78
2022/12/04 06:16:21;;;;;;;57.70;25.83;;;;;;;;;;4974321;28;20034;-75
2022/12/04 06:18:55;;;;;;;27.55;15.85;;;;;;;;;;4975449;28;20031;-78
2022/12/04 06:21:23;;;;;;;24.52;13.13;;;;;;;;;;4976621;28;20038;-79
2022/12/04 06:23:49;;;;;;;20.92;12.80;;;;;;;;;;4975922;28;20034;-77
2022/12/04 06:26:17;;;;;;;19.27;11.60;;;;;;;;;;4973393;28;20042;-76
2022/12/04 06:28:43;;;;;;;17.20;11.07;;;;;;;;;;4973555;28;20134;-75
2022/12/04 06:31:11;;;;;;;15.40;10.32;;;;;;;;;;4973628;28;20113;-75
2022/12/04 06:33:37;;;;;;;19.45;10.70;;;;;;;;;;4973788;28;20031;-79
2022/12/04 06:36:05;;;;;;;17.02;11.00;;;;;;;;;;4975415;28;20110;-79
2022/12/04 06:38:31;;;;;;;15.70;10.13;;;;;;;;;;4974799;28;20073;-76
2022/12/04 06:40:57;;;;;;;18.15;10.98;;;;;;;;;;4976019;28;20050;-78
2022/12/04 06:43:23;;;;;;;21.25;13.20;;;;;;;;;;4976681;28;20035;-79
2022/12/04 06:46:00;;;;;;;18.50;11.52;;;;;;;;;;4974951;28;20057;-76
2022/12/04 06:48:28;;;;;;;18.83;10.80;;;;;;;;;;4974199;28;20046;-75
2022/12/04 06:51:09;;;;;;;21.90;12.35;;;;;;;;;;4974031;28;20046;-76
2022/12/04 06:53:35;;;;;;;18.35;11.32;;;;;;;;;;4985733;28;20045;-76
2022/12/04 06:56:05;;;;;;;18.08;11.40;;;;;;;;;;4977845;28;20059;-78
2022/12/04 06:58:31;;;;;;;19.15;11.48;;;;;;;;;;4971334;28;20038;-78
2022/12/04 07:00:57;;;;;;;18.20;10.73;;;;;;;;;;4973797;28;20080;-80
2022/12/04 07:03:24;;;;;;;22.63;11.70;;;;;;;;;;4974771;28;20067;-76
2022/12/04 07:05:50;;;;;;;17.35;11.23;;;;;;;;;;4974597;28;20030;-76
2022/12/04 07:08:16;;;;;;;17.65;10.65;;;;;;;;;;4973700;28;20049;-78
2022/12/04 07:10:42;;;;;;;19.35;11.38;;;;;;;;;;4974345;28;20034;-77
2022/12/04 07:13:08;;;;;;;20.83;11.88;;;;;;;;;;4975590;28;20038;-77
2022/12/04 07:15:35;;;;;;;15.18;9.93;;;;;;;;;;4977895;28;20038;-77
2022/12/04 07:18:01;;;;;;;19.45;10.68;;;;;;;;;;4977629;28;20042;-77
2022/12/04 07:20:27;;;;;;;20.92;12.15;;;;;;;;;;4977358;28;20031;-78
2022/12/04 07:22:53;;;;;;;18.25;10.77;;;;;;;;;;4978532;28;20170;-77
2022/12/04 07:25:18;;;;;;;19.85;11.10;;;;;;;;;;4978053;28;20129;-77
2022/12/04 07:27:44;;;;;;;20.92;10.68;;;;;;;;;;4975857;28;20038;-78
2022/12/04 07:30:10;;;;;;;17.48;9.98;;;;;;;;;;4976742;28;20035;-77
2022/12/04 07:32:36;;;;;;;17.55;10.55;;;;;;;;;;4976923;28;20027;-78
2022/12/04 07:35:02;;;;;;;17.75;11.45;;;;;;;;;;4975087;28;20034;-76
2022/12/04 07:37:28;;;;;;;17.13;11.38;;;;;;;;;;4976750;28;20094;-78
2022/12/04 07:39:53;;;;;;;18.40;11.10;;;;;;;;;;4976117;28;20035;-77
2022/12/04 07:42:19;;;;;;;17.23;10.38;;;;;;;;;;4977931;28;20051;-77
2022/12/04 07:44:45;;;;;;;17.42;10.05;;;;;;;;;;4976645;28;20418;-77
2022/12/04 07:47:11;;;;;;;17.15;9.88;;;;;;;;;;4978202;28;20063;-76
2022/12/04 07:49:37;;;;;;;16.75;10.13;;;;;;;;;;4976759;28;20034;-77
2022/12/04 07:52:03;;;;;;;19.13;10.15;;;;;;;;;;4976088;28;20037;-77
2022/12/04 07:54:29;;;;;;;16.48;10.35;;;;;;;;;;4972323;28;20038;-77
2022/12/04 07:56:54;;;;;;;14.57;10.45;;;;;;;;;;4974651;28;20035;-77
2022/12/04 07:59:20;;;;;;;14.13;10.73;;;;;;;;;;4974288;28;20043;-76
2022/12/04 08:01:45;;;;;;;19.98;11.98;;;;;;;;;;4972053;28;20038;-77
2022/12/04 08:04:11;;;;;;;14.70;10.05;;;;;;;;;;4973548;28;20039;-79
2022/12/04 08:06:37;;;;;;;17.02;11.00;;;;;;;;;;4973743;28;20038;-77
2022/12/04 08:09:04;;;;;;;16.77;10.40;;;;;;;;;;4973398;28;20030;-77
2022/12/04 08:11:30;;;;;;;16.77;10.52;;;;;;;;;;4975456;28;20031;-77
2022/12/04 08:13:58;;;;;;;17.63;11.35;;;;;;;;;;4974910;28;20402;-76
2022/12/04 08:16:24;;;;;;;20.25;10.85;;;;;;;;;;4974220;28;20031;-78
2022/12/04 08:18:52;;;;;;;18.85;11.43;;;;;;;;;;4971817;28;20034;-77
2022/12/04 08:21:20;;;;;;;16.85;10.50;;;;;;;;;;4973621;28;20038;-77
2022/12/04 08:23:47;;;;;;;17.00;11.50;;;;;;;;;;4974988;28;20035;-78
2022/12/04 08:26:13;;;;;;;16.45;11.48;;;;;;;;;;4970480;28;20026;-77
2022/12/04 08:28:40;;;;;;;18.63;10.68;;;;;;;;;;4972479;28;20100;-77
2022/12/04 08:31:10;;;;;;;18.45;11.23;;;;;;;;;;4973162;28;20047;-79
2022/12/04 08:33:35;;;;;;;21.02;10.85;;;;;;;;;;4972582;28;20039;-76
2022/12/04 08:36:05;;;;;;;19.73;11.15;;;;;;;;;;4972175;28;20045;-75
2022/12/04 08:38:31;;;;;;;14.95;10.13;;;;;;;;;;4969729;28;20078;-77
2022/12/04 08:41:03;;;;;;;17.30;11.30;;;;;;;;;;4972778;28;20049;-76
2022/12/04 08:43:28;;;;;;;17.77;10.85;;;;;;;;;;4971804;28;20038;-77
2022/12/04 08:45:59;;;;;;;19.30;11.95;;;;;;;;;;4972184;28;20470;-77
2022/12/04 08:48:25;;;;;;;15.90;11.45;;;;;;;;;;4970742;28;20039;-79
2022/12/04 08:50:51;;;;;;;15.77;11.13;;;;;;;;;;4971985;28;20093;-78
2022/12/04 08:53:17;;;;;;;15.90;10.55;;;;;;;;;;4970937;28;20815;-78
2022/12/04 08:55:43;;;;;;;18.25;11.55;;;;;;;;;;4968433;28;20042;-77
2022/12/04 08:58:08;;;;;;;18.27;11.00;;;;;;;;;;4977080;28;20034;-76
2022/12/04 09:00:34;;;;;;;19.40;11.88;;;;;;;;;;4986912;28;20026;-75
2022/12/04 09:02:59;;;;;;;21.85;10.82;;;;;;;;;;4982038;28;20030;-77
2022/12/04 09:05:25;;;;;;;18.95;12.52;;;;;;;;;;4971214;28;20043;-77
2022/12/04 09:07:50;;;;;;;21.25;12.95;;;;;;;;;;4978100;28;20045;-77
2022/12/04 09:10:16;;;;;;;20.65;12.10;;;;;;;;;;4976835;28;20038;-77
2022/12/04 09:12:42;;;;;;;21.70;11.77;;;;;;;;;;4982109;28;20121;-77
2022/12/04 09:15:08;;;;;;;22.00;12.80;;;;;;;;;;4965383;28;20537;-76
2022/12/04 09:17:35;;;;;;;31.77;15.52;;;;;;;;;;4969588;28;20450;-77
2022/12/04 09:20:03;;;;;;;21.70;12.15;;;;;;;;;;4972963;28;20038;-76
2022/12/04 09:22:29;;;;;;;19.38;12.65;;;;;;;;;;4976586;28;20042;-78
2022/12/04 09:24:55;;;;;;;20.23;12.00;;;;;;;;;;4973571;28;20108;-77
2022/12/04 09:27:20;;;;;;;19.52;12.15;;;;;;;;;;4973552;28;20055;-77
2022/12/04 09:29:46;;;;;;;20.77;11.45;;;;;;;;;;4974381;28;20419;-77
2022/12/04 09:32:11;;;;;;;26.55;12.68;;;;;;;;;;4969588;28;20515;-76
2022/12/04 09:34:37;;;;;;;19.52;12.65;;;;;;;;;;4980751;28;20049;-78
2022/12/04 09:37:02;;;;;;;19.35;12.57;;;;;;;;;;4976586;28;20608;-77
2022/12/04 09:39:28;;;;;;;20.08;11.90;;;;;;;;;;4978999;28;20076;-77
2022/12/04 09:42:06;;;;;;;22.13;13.32;;;;;;;;;;4978391;28;20034;-76
2022/12/04 09:44:59;;;;;;;22.88;12.82;;;;;;;;;;4976049;28;20035;-77
2022/12/04 09:47:42;;;;;;;22.02;12.98;;;;;;;;;;4972653;28;20039;-78
2022/12/04 09:50:19;;;;;;;24.85;14.18;;;;;;;;;;4976345;28;20250;-78
2022/12/04 09:52:48;;;;;;;21.60;12.65;;;;;;;;;;4970950;28;20041;-77
2022/12/04 09:55:21;;;;;;;20.85;12.50;;;;;;;;;;4977472;28;20118;-77
2022/12/04 09:57:49;;;;;;;20.88;13.10;;;;;;;;;;4977786;28;20034;-77
2022/12/04 10:00:17;;;;;;;23.45;13.13;;;;;;;;;;4977302;28;20054;-78
2022/12/04 10:02:54;;;;;;;26.02;12.95;;;;;;;;;;4979412;28;20031;-76
2022/12/04 10:05:41;;;;;;;17.23;11.25;;;;;;;;;;4978865;28;20061;-79
2022/12/04 10:08:14;;;;;;;18.17;12.40;;;;;;;;;;4979073;28;20039;-76
2022/12/04 10:10:52;;;;;;;20.63;12.05;;;;;;;;;;4977443;28;20047;-79
2022/12/04 10:13:36;;;;;;;19.90;11.90;;;;;;;;;;4978526;28;20031;-78
2022/12/04 10:16:05;;;;;;;17.77;11.32;;;;;;;;;;4974295;28;20090;-78
2022/12/04 10:18:30;;;;;;;22.00;13.47;;;;;;;;;;4979398;28;20035;-77
2022/12/04 10:21:12;;;;;;;19.75;12.52;;;;;;;;;;4979617;28;20286;-77
2022/12/04 10:24:06;;;;;;;21.77;13.65;;;;;;;;;;4980643;28;20494;-77
2022/12/04 10:26:38;;;;;;;20.05;12.73;;;;;;;;;;4975158;28;20072;-77
2022/12/04 10:29:07;;;;;;;21.50;13.45;;;;;;;;;;4979391;28;20077;-76
2022/12/04 10:31:35;;;;;;;19.58;12.85;;;;;;;;;;4976637;28;20469;-76
2022/12/04 10:34:11;;;;;;;21.15;13.20;;;;;;;;;;4982334;28;20474;-78
2022/12/04 10:36:38;;;;;;;18.83;13.23;;;;;;;;;;4978837;28;20126;-78
2022/12/04 10:39:15;;;;;;;26.73;14.13;;;;;;;;;;4974432;28;20031;-76
2022/12/04 10:42:04;;;;;;;25.88;14.63;;;;;;;;;;4978818;28;20098;-78
2022/12/04 10:44:30;;;;;;;21.45;12.68;;;;;;;;;;4979257;28;20049;-75
2022/12/04 10:46:59;;;;;;;19.58;13.00;;;;;;;;;;4974136;28;20031;-77
2022/12/04 10:49:27;;;;;;;22.67;14.27;;;;;;;;;;4979160;28;20146;-77
2022/12/04 10:51:53;;;;;;;23.77;14.13;;;;;;;;;;4978440;28;20053;-77
2022/12/04 10:54:30;;;;;;;22.25;13.73;;;;;;;;;;4977594;28;20038;-78
2022/12/04 10:57:05;;;;;;;25.55;13.15;;;;;;;;;;4982730;28;20026;-76
2022/12/04 10:59:30;;;;;;;26.10;14.80;;;;;;;;;;4981162;28;20059;-77
2022/12/04 11:02:25;;;;;;;21.98;13.35;;;;;;;;;;4984674;28;20437;-77
2022/12/04 11:04:58;;;;;;;25.58;12.70;;;;;;;;;;4981061;28;20039;-76
2022/12/04 11:07:30;;;;;;;20.75;12.70;;;;;;;;;;4985565;28;20402;-78
2022/12/04 11:10:17;;;;;;;19.15;12.60;;;;;;;;;;4990924;28;20034;-77
2022/12/04 11:12:56;;;;;;;19.67;12.43;;;;;;;;;;4986409;28;20065;-77
2022/12/04 11:15:23;;;;;;;20.17;12.25;;;;;;;;;;4987963;28;20034;-77
2022/12/04 11:17:48;;;;;;;17.75;11.43;;;;;;;;;;4984785;28;20050;-76
2022/12/04 11:20:18;;;;;;;19.20;11.93;;;;;;;;;;4986074;28;20039;-77
2022/12/04 11:22:51;;;;;;;20.30;12.05;;;;;;;;;;4974418;28;20109;-76
2022/12/04 11:25:18;;;;;;;22.25;13.18;;;;;;;;;;4993701;28;20034;-78
2022/12/04 11:27:47;;;;;;;22.45;12.80;;;;;;;;;;4992116;28;20041;-78
2022/12/04 11:30:19;;;;;;;19.57;11.23;;;;;;;;;;4990108;28;20043;-77
2022/12/04 11:32:45;;;;;;;21.25;12.32;;;;;;;;;;4993643;28;20281;-78
2022/12/04 11:35:16;;;;;;;20.38;12.20;;;;;;;;;;4994114;28;20106;-78
2022/12/04 11:37:52;;;;;;;23.10;12.55;;;;;;;;;;4991700;28;20038;-76
2022/12/04 11:40:19;;;;;;;18.33;11.90;;;;;;;;;;4995672;28;20031;-76
2022/12/04 11:42:58;;;;;;;21.40;12.45;;;;;;;;;;4990859;28;20138;-76
2022/12/04 11:45:23;;;;;;;19.30;12.73;;;;;;;;;;4996481;28;20058;-79
2022/12/04 11:48:00;;;;;;;23.50;12.45;;;;;;;;;;4979836;28;20145;-77
2022/12/04 11:50:41;;;;;;;22.92;13.13;;;;;;;;;;4971733;28;20449;-77
2022/12/04 11:53:10;;;;;;;19.63;11.10;;;;;;;;;;4980322;28;20041;-77
2022/12/04 11:56:05;;;;;;;20.65;13.32;;;;;;;;;;4979887;28;20043;-78
2022/12/04 11:58:54;;;;;;;20.90;12.57;;;;;;;;;;4976232;28;20034;-78
2022/12/04 12:01:38;;;;;;;28.10;14.50;;;;;;;;;;4975831;28;20133;-78
2022/12/04 12:04:10;;;;;;;26.20;14.85;;;;;;;;;;4982746;28;20053;-79
2022/12/04 12:06:53;;;;;;;20.38;12.07;;;;;;;;;;4996894;28;20030;-78
2022/12/04 12:09:37;;;;;;;21.85;12.65;;;;;;;;;;4985433;28;20042;-77
2022/12/04 12:12:21;;;;;;;20.70;12.18;;;;;;;;;;4987409;28;20073;-76
2022/12/04 12:15:15;;;;;;;23.05;13.40;;;;;;;;;;4974680;28;20434;-78
2022/12/04 12:17:57;;;;;;;26.13;14.00;;;;;;;;;;4971908;28;20042;-78
2022/12/04 12:21:07;;;;;;;27.15;13.38;;;;;;;;;;4991966;28;20122;-79
2022/12/04 12:23:55;;;;;;;30.27;15.00;;;;;;;;;;4950761;29;20074;-77
2022/12/04 12:26:26;;;;;;;24.70;12.85;;;;;;;;;;4898320;29;20376;-77
2022/12/04 12:28:57;;;;;;;22.83;13.65;;;;;;;;;;4912946;29;20063;-76
2022/12/04 12:31:41;;;;;;;26.50;13.23;;;;;;;;;;4954974;29;20047;-77
2022/12/04 12:34:13;;;;;;;25.98;14.45;;;;;;;;;;4933555;29;20055;-76
2022/12/04 12:36:43;;;;;;;24.00;12.40;;;;;;;;;;4950430;29;20582;-76
2022/12/04 12:39:18;;;;;;;26.98;14.32;;;;;;;;;;4952414;29;20039;-76
2022/12/04 12:41:54;;;;;;;25.02;13.68;;;;;;;;;;4931860;29;20083;-75
2022/12/04 12:44:33;;;;;;;21.60;13.07;;;;;;;;;;4946703;29;20550;-74
2022/12/04 12:47:08;;;;;;;23.42;13.73;;;;;;;;;;4949624;29;20070;-75
2022/12/04 12:49:55;;;;;;;27.77;13.00;;;;;;;;;;4954194;29;20554;-75
2022/12/04 12:52:45;;;;;;;24.17;14.13;;;;;;;;;;4909813;29;20070;-76
2022/12/04 12:55:18;;;;;;;18.60;12.10;;;;;;;;;;4952033;29;20118;-75
2022/12/04 12:57:48;;;;;;;19.58;12.07;;;;;;;;;;4918834;29;20050;-76
2022/12/04 13:00:22;;;;;;;28.17;14.52;;;;;;;;;;4965498;28;20431;-76
2022/12/04 13:03:04;;;;;;;23.23;13.35;;;;;;;;;;4985457;28;20213;-78
2022/12/04 13:05:39;;;;;;;17.20;12.43;;;;;;;;;;4978850;28;20034;-78
2022/12/04 13:08:19;;;;;;;19.77;12.82;;;;;;;;;;4983725;28;20030;-76
2022/12/04 13:10:52;;;;;;;24.00;13.60;;;;;;;;;;5000770;28;20458;-77
2022/12/04 13:13:26;;;;;;;19.77;12.32;;;;;;;;;;4986515;28;20096;-77
2022/12/04 13:15:56;;;;;;;21.33;13.30;;;;;;;;;;4981409;28;20054;-76
2022/12/04 13:18:31;;;;;;;20.15;12.65;;;;;;;;;;4971988;28;20470;-77
2022/12/04 13:21:00;;;;;;;18.63;11.40;;;;;;;;;;4976528;28;20399;-79
2022/12/04 13:23:44;;;;;;;;;;;;;;;;;;4986646;28;20058;-75
2022/12/04 13:26:50;;;;;;;17.27;10.82;;;;;;;;;;4989379;28;19933;-76
2022/12/04 13:29:31;;;;;;;28.02;13.88;;;;;;;;;;4981595;28;20642;-77
2022/12/04 13:32:39;;;;;;;26.05;13.35;;;;;;;;;;4981844;28;20506;-77
2022/12/04 13:35:19;;;;;;;19.02;12.18;;;;;;;;;;4972044;28;20038;-77
2022/12/04 13:38:27;;;;;;;20.92;12.30;;;;;;;;;;4981935;28;20066;-77
2022/12/04 13:41:00;;;;;;;19.80;12.13;;;;;;;;;;4980692;28;20044;-77
2022/12/04 13:43:40;;;;;;;19.85;11.85;;;;;;;;;;4976930;28;20037;-78
2022/12/04 13:46:21;;;;;;;20.58;12.45;;;;;;;;;;4990395;28;20243;-76
2022/12/04 13:48:47;;;;;;;30.63;14.50;;;;;;;;;;4982868;28;20503;-77
2022/12/04 13:51:13;;;;;;;28.88;14.27;;;;;;;;;;4976971;28;20034;-78
2022/12/04 13:53:41;;;;;;;20.48;12.23;;;;;;;;;;4981714;28;20395;-77
2022/12/04 13:56:23;;;;;;;25.27;13.38;;;;;;;;;;4977296;28;20034;-77
2022/12/04 13:59:00;;;;;;;21.60;13.82;;;;;;;;;;4974701;28;20058;-76
2022/12/04 14:01:34;;;;;;;25.90;13.82;;;;;;;;;;4970195;28;20046;-77
2022/12/04 14:04:00;;;;;;;23.40;13.82;;;;;;;;;;4977612;28;20041;-77
2022/12/04 14:06:34;;;;;;;24.02;14.25;;;;;;;;;;4972985;28;20022;-79
2022/12/04 14:09:04;;;;;;;26.95;14.68;;;;;;;;;;4971700;28;20977;-78
2022/12/04 14:11:44;;;;;;;27.70;14.95;;;;;;;;;;4984624;28;20049;-76
2022/12/04 14:14:33;;;;;;;25.88;13.65;;;;;;;;;;4970348;28;20039;-78
2022/12/04 14:16:59;;;;;;;25.13;13.85;;;;;;;;;;4977971;28;20042;-77
2022/12/04 14:19:34;;;;;;;25.58;13.80;;;;;;;;;;4970493;28;20046;-77
2022/12/04 14:22:00;;;;;;;26.95;14.35;;;;;;;;;;4981061;28;20042;-76
2022/12/04 14:24:34;;;;;;;23.38;13.52;;;;;;;;;;4976167;28;20066;-77
2022/12/04 14:27:20;;;;;;;24.27;14.43;;;;;;;;;;4969195;28;20031;-78
2022/12/04 14:29:53;;;;;;;31.48;15.75;;;;;;;;;;4976361;28;20123;-78
2022/12/04 14:32:26;;;;;;;28.67;15.52;;;;;;;;;;4977477;28;20179;-77
2022/12/04 14:34:53;;;;;;;43.42;19.15;;;;;;;;;;4978794;28;20104;-76
2022/12/04 14:37:26;;;;;;;34.05;16.30;;;;;;;;;;4966774;28;20111;-76
2022/12/04 14:39:52;;;;;;;29.15;14.40;;;;;;;;;;4968986;28;20043;-77
2022/12/04 14:42:25;;;;;;;34.17;16.58;;;;;;;;;;4954850;28;20034;-77
2022/12/04 14:44:57;;;;;;;34.28;17.08;;;;;;;;;;4977597;28;20037;-75
2022/12/04 14:47:41;;;;;;;31.05;16.75;;;;;;;;;;4955811;28;20510;-77
2022/12/04 14:50:25;;;;;;;31.30;15.38;;;;;;;;;;4972428;28;20038;-76
2022/12/04 14:53:19;;;;;;;38.50;17.70;;;;;;;;;;4972451;28;20086;-78
2022/12/04 14:56:10;;;;;;;27.42;14.77;;;;;;;;;;4972909;28;20042;-76